sensor_id;sensor_type;location;lat;lon;timestamp;temperature;humidity
2158;DHT22;41972;48.774;9.282;2022-07-05T00:02:11;15.90;99.90
2158;DHT22;41972;48.774;9.282;2022-07-05T00:04:37;15.70;99.90
2158;DHT22;41972;48.774;9.282;2022-07-05T00:07:03;15.60;99.90
2158;DHT22;41972;48.774;9.282;2022-07-05T00:09:54;15.40;99.90
2158;DHT22;41972;48.774;9.282;2022-07-05T00:12:24;15.30;99.90
2158;DHT22;41972;48.774;9.282;2022-07-05T00:14:50;15.30;99.90
2158;DHT22;41972;48.774;9.282;2022-07-05T00:17:16;15.30;99.90
2158;DHT22;41972;48.774;9.282;2022-07-05T00:19:41;15.20;99.90
2158;DHT22;41972;48.774;9.282;2022-07-05T00:22:07;15.10;99.90
2158;DHT22;41972;48.774;9.282;2022-07-05T00:24:33;15.00;99.90
2158;DHT22;41972;48.774;9.282;2022-07-05T00:26:58;15.10;99.90
2158;DHT22;41972;48.774;9.282;2022-07-05T00:29:24;15.10;99.90
2158;DHT22;41972;48.774;9.282;2022-07-05T00:31:50;15.20;99.90
2158;DHT22;41972;48.774;9.282;2022-07-05T00:34:15;15.20;99.90
2158;DHT22;41972;48.774;9.282;2022-07-05T00:36:41;15.10;99.90
2158;DHT22;41972;48.774;9.282;2022-07-05T00:39:09;15.00;99.90
2158;DHT22;41972;48.774;9.282;2022-07-05T00:41:35;14.90;99.90
2158;DHT22;41972;48.774;9.282;2022-07-05T00:44:04;14.70;99.90
2158;DHT22;41972;48.774;9.282;2022-07-05T00:46:30;14.60;99.90
2158;DHT22;41972;48.774;9.282;2022-07-05T00:48:57;14.70;99.90
2158;DHT22;41972;48.774;9.282;2022-07-05T00:51:24;14.70;99.90
2158;DHT22;41972;48.774;9.282;2022-07-05T00:53:50;14.60;99.90
2158;DHT22;41972;48.774;9.282;2022-07-05T00:56:16;14.50;99.90
2158;DHT22;41972;48.774;9.282;2022-07-05T00:58:43;14.40;99.90
2158;DHT22;41972;48.774;9.282;2022-07-05T01:01:09;14.60;99.90
2158;DHT22;41972;48.774;9.282;2022-07-05T01:03:36;14.50;99.90
2158;DHT22;41972;48.774;9.282;2022-07-05T01:06:04;14.50;99.90
2158;DHT22;41972;48.774;9.282;2022-07-05T01:08:33;14.50;99.90
2158;DHT22;41972;48.774;9.282;2022-07-05T01:10:59;14.50;99.90
2158;DHT22;41972;48.774;9.282;2022-07-05T01:13:25;14.40;99.90
2158;DHT22;41972;48.774;9.282;2022-07-05T01:15:51;14.40;99.90
2158;DHT22;41972;48.774;9.282;2022-07-05T01:18:19;14.50;99.90
2158;DHT22;41972;48.774;9.282;2022-07-05T01:20:48;14.50;99.90
2158;DHT22;41972;48.774;9.282;2022-07-05T01:23:13;14.30;99.90
2158;DHT22;41972;48.774;9.282;2022-07-05T01:25:39;14.30;99.90
2158;DHT22;41972;48.774;9.282;2022-07-05T01:28:05;14.30;99.90
2158;DHT22;41972;48.774;9.282;2022-07-05T01:30:34;14.40;99.90
2158;DHT22;41972;48.774;9.282;2022-07-05T01:33:00;14.30;99.90
2158;DHT22;41972;48.774;9.282;2022-07-05T01:35:25;14.40;99.90
2158;DHT22;41972;48.774;9.282;2022-07-05T01:37:52;14.40;99.90
2158;DHT22;41972;48.774;9.282;2022-07-05T01:40:18;14.40;99.90
2158;DHT22;41972;48.774;9.282;2022-07-05T01:42:44;14.30;99.90
2158;DHT22;41972;48.774;9.282;2022-07-05T01:45:11;14.00;99.90
2158;DHT22;41972;48.774;9.282;2022-07-05T01:47:40;13.80;99.90
2158;DHT22;41972;48.774;9.282;2022-07-05T01:50:07;13.80;99.90
2158;DHT22;41972;48.774;9.282;2022-07-05T01:52:36;13.70;99.90
2158;DHT22;41972;48.774;9.282;2022-07-05T01:55:04;13.70;99.90
2158;DHT22;41972;48.774;9.282;2022-07-05T01:57:29;13.70;99.90
2158;DHT22;41972;48.774;9.282;2022-07-05T01:59:55;13.70;99.90
2158;DHT22;41972;48.774;9.282;2022-07-05T02:02:21;13.90;99.90
2158;DHT22;41972;48.774;9.282;2022-07-05T02:04:46;14.00;99.90
2158;DHT22;41972;48.774;9.282;2022-07-05T02:07:12;13.90;99.90
2158;DHT22;41972;48.774;9.282;2022-07-05T02:09:38;14.00;99.90
2158;DHT22;41972;48.774;9.282;2022-07-05T02:12:05;14.00;99.90
2158;DHT22;41972;48.774;9.282;2022-07-05T02:14:31;13.80;99.90
2158;DHT22;41972;48.774;9.282;2022-07-05T02:16:56;13.80;99.90
2158;DHT22;41972;48.774;9.282;2022-07-05T02:19:22;13.70;99.90
2158;DHT22;41972;48.774;9.282;2022-07-05T02:21:48;13.60;99.90
2158;DHT22;41972;48.774;9.282;2022-07-05T02:24:14;13.80;99.90
2158;DHT22;41972;48.774;9.282;2022-07-05T02:26:39;13.70;99.90
2158;DHT22;41972;48.774;9.282;2022-07-05T02:29:05;13.50;99.90
2158;DHT22;41972;48.774;9.282;2022-07-05T02:31:31;13.30;99.90
2158;DHT22;41972;48.774;9.282;2022-07-05T02:33:57;13.30;99.90
2158;DHT22;41972;48.774;9.282;2022-07-05T02:36:23;13.40;99.90
2158;DHT22;41972;48.774;9.282;2022-07-05T02:38:49;13.20;99.90
2158;DHT22;41972;48.774;9.282;2022-07-05T02:41:14;13.30;99.90
2158;DHT22;41972;48.774;9.282;2022-07-05T02:43:40;13.30;99.90
2158;DHT22;41972;48.774;9.282;2022-07-05T02:46:08;13.30;99.90
2158;DHT22;41972;48.774;9.282;2022-07-05T02:48:35;13.30;99.90
2158;DHT22;41972;48.774;9.282;2022-07-05T02:51:01;13.50;99.90
2158;DHT22;41972;48.774;9.282;2022-07-05T02:53:27;13.50;99.90
2158;DHT22;41972;48.774;9.282;2022-07-05T02:55:53;13.50;99.90
2158;DHT22;41972;48.774;9.282;2022-07-05T02:58:19;13.30;99.90
2158;DHT22;41972;48.774;9.282;2022-07-05T03:00:46;13.30;99.90
2158;DHT22;41972;48.774;9.282;2022-07-05T03:03:12;13.30;99.90
2158;DHT22;41972;48.774;9.282;2022-07-05T03:05:38;13.40;99.90
2158;DHT22;41972;48.774;9.282;2022-07-05T03:08:05;13.40;99.90
2158;DHT22;41972;48.774;9.282;2022-07-05T03:10:32;13.30;99.90
2158;DHT22;41972;48.774;9.282;2022-07-05T03:12:58;13.20;99.90
2158;DHT22;41972;48.774;9.282;2022-07-05T03:15:23;13.30;99.90
2158;DHT22;41972;48.774;9.282;2022-07-05T03:17:49;13.20;99.90
2158;DHT22;41972;48.774;9.282;2022-07-05T03:20:14;13.10;99.90
2158;DHT22;41972;48.774;9.282;2022-07-05T03:22:40;13.10;99.90
2158;DHT22;41972;48.774;9.282;2022-07-05T03:25:06;13.10;99.90
2158;DHT22;41972;48.774;9.282;2022-07-05T03:27:31;13.10;99.90
2158;DHT22;41972;48.774;9.282;2022-07-05T03:29:57;13.20;99.90
2158;DHT22;41972;48.774;9.282;2022-07-05T03:32:23;13.20;99.90
2158;DHT22;41972;48.774;9.282;2022-07-05T03:34:48;13.10;99.90
2158;DHT22;41972;48.774;9.282;2022-07-05T03:37:14;13.00;99.90
2158;DHT22;41972;48.774;9.282;2022-07-05T03:39:39;13.00;99.90
2158;DHT22;41972;48.774;9.282;2022-07-05T03:42:05;13.10;99.90
2158;DHT22;41972;48.774;9.282;2022-07-05T03:44:31;13.10;99.90
2158;DHT22;41972;48.774;9.282;2022-07-05T03:47:00;13.10;99.90
2158;DHT22;41972;48.774;9.282;2022-07-05T03:49:26;13.30;99.90
2158;DHT22;41972;48.774;9.282;2022-07-05T03:51:52;13.40;99.90
2158;DHT22;41972;48.774;9.282;2022-07-05T03:54:17;13.50;99.90
2158;DHT22;41972;48.774;9.282;2022-07-05T03:56:43;13.40;99.90
2158;DHT22;41972;48.774;9.282;2022-07-05T03:59:09;13.50;99.90
2158;DHT22;41972;48.774;9.282;2022-07-05T04:01:34;13.40;99.90
2158;DHT22;41972;48.774;9.282;2022-07-05T04:04:00;13.40;99.90
2158;DHT22;41972;48.774;9.282;2022-07-05T04:06:25;13.30;99.90
2158;DHT22;41972;48.774;9.282;2022-07-05T04:08:51;13.50;99.90
2158;DHT22;41972;48.774;9.282;2022-07-05T04:11:16;13.60;99.90
2158;DHT22;41972;48.774;9.282;2022-07-05T04:13:43;13.70;99.90
2158;DHT22;41972;48.774;9.282;2022-07-05T04:16:08;13.70;99.90
2158;DHT22;41972;48.774;9.282;2022-07-05T04:18:34;13.70;99.90
2158;DHT22;41972;48.774;9.282;2022-07-05T04:21:01;13.80;99.90
2158;DHT22;41972;48.774;9.282;2022-07-05T04:23:26;14.40;99.90
2158;DHT22;41972;48.774;9.282;2022-07-05T04:25:52;15.90;99.90
2158;DHT22;41972;48.774;9.282;2022-07-05T04:28:18;18.00;99.90
2158;DHT22;41972;48.774;9.282;2022-07-05T04:30:43;20.10;1.00
2158;DHT22;41972;48.774;9.282;2022-07-05T04:33:09;20.90;99.90
2158;DHT22;41972;48.774;9.282;2022-07-05T04:35:34;19.70;99.90
2158;DHT22;41972;48.774;9.282;2022-07-05T04:38:00;20.70;42.40
2158;DHT22;41972;48.774;9.282;2022-07-05T04:40:25;21.80;99.90
2158;DHT22;41972;48.774;9.282;2022-07-05T04:42:51;23.30;99.90
2158;DHT22;41972;48.774;9.282;2022-07-05T04:45:16;23.30;99.90
2158;DHT22;41972;48.774;9.282;2022-07-05T04:47:42;23.90;99.90
2158;DHT22;41972;48.774;9.282;2022-07-05T04:50:08;26.50;99.90
2158;DHT22;41972;48.774;9.282;2022-07-05T04:52:35;25.70;43.40
2158;DHT22;41972;48.774;9.282;2022-07-05T04:55:01;26.40;28.70
2158;DHT22;41972;48.774;9.282;2022-07-05T04:57:26;28.60;96.00
2158;DHT22;41972;48.774;9.282;2022-07-05T04:59:52;29.30;1.00
2158;DHT22;41972;48.774;9.282;2022-07-05T05:02:17;27.80;1.00
2158;DHT22;41972;48.774;9.282;2022-07-05T05:04:43;27.40;1.00
2158;DHT22;41972;48.774;9.282;2022-07-05T05:07:09;26.90;1.00
2158;DHT22;41972;48.774;9.282;2022-07-05T05:09:34;25.60;1.00
2158;DHT22;41972;48.774;9.282;2022-07-05T05:12:00;25.40;99.90
2158;DHT22;41972;48.774;9.282;2022-07-05T05:14:25;25.90;99.90
2158;DHT22;41972;48.774;9.282;2022-07-05T05:16:51;25.30;99.90
2158;DHT22;41972;48.774;9.282;2022-07-05T05:19:17;23.80;99.90
2158;DHT22;41972;48.774;9.282;2022-07-05T05:21:42;24.30;99.90
2158;DHT22;41972;48.774;9.282;2022-07-05T05:24:08;26.90;99.90
2158;DHT22;41972;48.774;9.282;2022-07-05T05:26:34;26.80;99.90
2158;DHT22;41972;48.774;9.282;2022-07-05T05:28:59;25.00;99.90
2158;DHT22;41972;48.774;9.282;2022-07-05T05:31:25;25.70;99.90
2158;DHT22;41972;48.774;9.282;2022-07-05T05:33:50;24.90;99.90
2158;DHT22;41972;48.774;9.282;2022-07-05T05:36:16;25.80;99.90
2158;DHT22;41972;48.774;9.282;2022-07-05T05:38:42;26.40;99.90
2158;DHT22;41972;48.774;9.282;2022-07-05T05:41:07;25.30;99.90
2158;DHT22;41972;48.774;9.282;2022-07-05T05:43:33;24.70;99.90
2158;DHT22;41972;48.774;9.282;2022-07-05T05:45:59;25.50;99.90
2158;DHT22;41972;48.774;9.282;2022-07-05T05:48:25;24.20;99.90
2158;DHT22;41972;48.774;9.282;2022-07-05T05:50:50;22.60;99.90
2158;DHT22;41972;48.774;9.282;2022-07-05T05:53:16;23.50;99.90
2158;DHT22;41972;48.774;9.282;2022-07-05T05:55:42;24.00;99.90
2158;DHT22;41972;48.774;9.282;2022-07-05T05:58:14;23.80;99.90
2158;DHT22;41972;48.774;9.282;2022-07-05T06:00:40;21.40;99.90
2158;DHT22;41972;48.774;9.282;2022-07-05T06:03:06;22.00;99.90
2158;DHT22;41972;48.774;9.282;2022-07-05T06:05:31;22.20;99.90
2158;DHT22;41972;48.774;9.282;2022-07-05T06:07:57;22.90;99.90
2158;DHT22;41972;48.774;9.282;2022-07-05T06:10:31;22.30;99.90
2158;DHT22;41972;48.774;9.282;2022-07-05T06:12:58;22.70;99.90
2158;DHT22;41972;48.774;9.282;2022-07-05T06:15:24;23.50;99.90
2158;DHT22;41972;48.774;9.282;2022-07-05T06:17:50;23.70;99.90
2158;DHT22;41972;48.774;9.282;2022-07-05T06:20:24;25.40;99.90
2158;DHT22;41972;48.774;9.282;2022-07-05T06:22:51;26.30;99.90
2158;DHT22;41972;48.774;9.282;2022-07-05T06:25:17;27.00;99.90
2158;DHT22;41972;48.774;9.282;2022-07-05T06:27:45;26.90;99.90
2158;DHT22;41972;48.774;9.282;2022-07-05T06:30:14;25.20;99.90
2158;DHT22;41972;48.774;9.282;2022-07-05T06:32:40;27.60;99.90
2158;DHT22;41972;48.774;9.282;2022-07-05T06:35:06;30.30;99.90
2158;DHT22;41972;48.774;9.282;2022-07-05T06:37:46;31.00;99.90
2158;DHT22;41972;48.774;9.282;2022-07-05T06:40:16;29.00;99.90
2158;DHT22;41972;48.774;9.282;2022-07-05T06:42:42;29.70;99.90
2158;DHT22;41972;48.774;9.282;2022-07-05T06:45:08;29.20;99.90
2158;DHT22;41972;48.774;9.282;2022-07-05T06:47:34;28.00;99.90
2158;DHT22;41972;48.774;9.282;2022-07-05T06:50:00;30.00;99.90
2158;DHT22;41972;48.774;9.282;2022-07-05T06:52:30;31.20;99.90
2158;DHT22;41972;48.774;9.282;2022-07-05T06:54:57;30.50;99.90
2158;DHT22;41972;48.774;9.282;2022-07-05T06:57:23;30.50;99.90
2158;DHT22;41972;48.774;9.282;2022-07-05T06:59:49;30.00;99.90
2158;DHT22;41972;48.774;9.282;2022-07-05T07:02:15;30.10;99.90
2158;DHT22;41972;48.774;9.282;2022-07-05T07:04:40;30.30;99.90
2158;DHT22;41972;48.774;9.282;2022-07-05T07:07:06;30.90;99.90
2158;DHT22;41972;48.774;9.282;2022-07-05T07:09:58;33.00;99.90
2158;DHT22;41972;48.774;9.282;2022-07-05T07:12:24;31.60;99.90
2158;DHT22;41972;48.774;9.282;2022-07-05T07:14:49;33.60;1.00
2158;DHT22;41972;48.774;9.282;2022-07-05T07:17:15;35.00;1.00
2158;DHT22;41972;48.774;9.282;2022-07-05T07:19:40;35.60;1.00
2158;DHT22;41972;48.774;9.282;2022-07-05T07:22:06;35.10;1.00
2158;DHT22;41972;48.774;9.282;2022-07-05T07:24:31;37.00;1.00
2158;DHT22;41972;48.774;9.282;2022-07-05T07:26:57;34.10;1.00
2158;DHT22;41972;48.774;9.282;2022-07-05T07:29:30;32.40;1.00
2158;DHT22;41972;48.774;9.282;2022-07-05T07:31:56;33.00;1.00
2158;DHT22;41972;48.774;9.282;2022-07-05T07:34:22;35.20;1.00
2158;DHT22;41972;48.774;9.282;2022-07-05T07:36:48;35.20;1.00
2158;DHT22;41972;48.774;9.282;2022-07-05T07:39:14;35.30;1.00
2158;DHT22;41972;48.774;9.282;2022-07-05T07:41:40;35.50;1.00
2158;DHT22;41972;48.774;9.282;2022-07-05T07:44:05;30.60;1.00
2158;DHT22;41972;48.774;9.282;2022-07-05T07:46:31;28.80;1.00
2158;DHT22;41972;48.774;9.282;2022-07-05T07:48:57;31.50;1.00
2158;DHT22;41972;48.774;9.282;2022-07-05T07:51:23;32.30;1.00
2158;DHT22;41972;48.774;9.282;2022-07-05T07:53:49;31.80;1.00
2158;DHT22;41972;48.774;9.282;2022-07-05T07:56:15;30.80;1.00
2158;DHT22;41972;48.774;9.282;2022-07-05T07:58:41;32.60;1.00
2158;DHT22;41972;48.774;9.282;2022-07-05T08:01:06;34.40;1.00
2158;DHT22;41972;48.774;9.282;2022-07-05T08:03:39;32.30;1.00
2158;DHT22;41972;48.774;9.282;2022-07-05T08:06:06;31.90;1.00
2158;DHT22;41972;48.774;9.282;2022-07-05T08:08:33;32.60;1.00
2158;DHT22;41972;48.774;9.282;2022-07-05T08:10:59;33.40;1.00
2158;DHT22;41972;48.774;9.282;2022-07-05T08:13:25;32.80;99.90
2158;DHT22;41972;48.774;9.282;2022-07-05T08:15:51;32.50;1.00
2158;DHT22;41972;48.774;9.282;2022-07-05T08:18:17;32.40;1.00
2158;DHT22;41972;48.774;9.282;2022-07-05T08:21:00;32.70;1.00
2158;DHT22;41972;48.774;9.282;2022-07-05T08:23:45;33.30;1.00
2158;DHT22;41972;48.774;9.282;2022-07-05T08:26:10;34.40;1.00
2158;DHT22;41972;48.774;9.282;2022-07-05T08:28:36;35.50;99.90
2158;DHT22;41972;48.774;9.282;2022-07-05T08:31:01;34.40;78.80
2158;DHT22;41972;48.774;9.282;2022-07-05T08:33:27;33.00;37.90
2158;DHT22;41972;48.774;9.282;2022-07-05T08:35:52;31.10;94.30
2158;DHT22;41972;48.774;9.282;2022-07-05T08:38:18;33.10;99.90
2158;DHT22;41972;48.774;9.282;2022-07-05T08:40:50;33.40;66.60
2158;DHT22;41972;48.774;9.282;2022-07-05T08:43:16;33.80;3.20
2158;DHT22;41972;48.774;9.282;2022-07-05T08:45:43;34.90;1.00
2158;DHT22;41972;48.774;9.282;2022-07-05T08:48:10;34.20;1.00
2158;DHT22;41972;48.774;9.282;2022-07-05T08:50:38;33.90;1.00
2158;DHT22;41972;48.774;9.282;2022-07-05T08:53:05;33.90;1.00
2158;DHT22;41972;48.774;9.282;2022-07-05T08:55:32;37.10;96.90
2158;DHT22;41972;48.774;9.282;2022-07-05T08:57:58;37.00;1.00
2158;DHT22;41972;48.774;9.282;2022-07-05T09:00:24;35.60;1.00
2158;DHT22;41972;48.774;9.282;2022-07-05T09:02:50;32.60;1.00
2158;DHT22;41972;48.774;9.282;2022-07-05T09:05:18;31.30;1.00
2158;DHT22;41972;48.774;9.282;2022-07-05T09:08:04;29.30;99.90
2158;DHT22;41972;48.774;9.282;2022-07-05T09:10:30;29.30;99.90
2158;DHT22;41972;48.774;9.282;2022-07-05T09:12:57;31.80;99.90
2158;DHT22;41972;48.774;9.282;2022-07-05T09:15:23;29.40;99.90
2158;DHT22;41972;48.774;9.282;2022-07-05T09:17:49;30.90;99.90
2158;DHT22;41972;48.774;9.282;2022-07-05T09:20:17;31.50;1.00
2158;DHT22;41972;48.774;9.282;2022-07-05T09:25:27;34.90;1.00
2158;DHT22;41972;48.774;9.282;2022-07-05T09:27:58;33.20;1.00
2158;DHT22;41972;48.774;9.282;2022-07-05T09:33:12;30.00;1.00
2158;DHT22;41972;48.774;9.282;2022-07-05T09:35:41;30.70;1.00
2158;DHT22;41972;48.774;9.282;2022-07-05T09:38:20;32.80;1.00
2158;DHT22;41972;48.774;9.282;2022-07-05T09:40:56;33.00;1.00
2158;DHT22;41972;48.774;9.282;2022-07-05T09:43:29;32.90;1.00
2158;DHT22;41972;48.774;9.282;2022-07-05T09:45:57;31.50;1.00
2158;DHT22;41972;48.774;9.282;2022-07-05T09:48:23;32.60;1.00
2158;DHT22;41972;48.774;9.282;2022-07-05T09:50:49;31.20;1.00
2158;DHT22;41972;48.774;9.282;2022-07-05T09:53:19;31.20;1.00
2158;DHT22;41972;48.774;9.282;2022-07-05T09:56:03;30.50;1.00
2158;DHT22;41972;48.774;9.282;2022-07-05T09:58:30;28.80;1.00
2158;DHT22;41972;48.774;9.282;2022-07-05T10:00:55;28.90;1.00
2158;DHT22;41972;48.774;9.282;2022-07-05T10:03:21;30.10;1.00
2158;DHT22;41972;48.774;9.282;2022-07-05T10:05:47;31.90;1.00
2158;DHT22;41972;48.774;9.282;2022-07-05T10:08:13;31.70;1.00
2158;DHT22;41972;48.774;9.282;2022-07-05T10:10:39;32.30;1.00
2158;DHT22;41972;48.774;9.282;2022-07-05T10:13:06;34.30;1.00
2158;DHT22;41972;48.774;9.282;2022-07-05T10:15:34;32.60;1.00
2158;DHT22;41972;48.774;9.282;2022-07-05T10:18:03;29.80;1.00
2158;DHT22;41972;48.774;9.282;2022-07-05T10:20:43;29.10;1.00
2158;DHT22;41972;48.774;9.282;2022-07-05T10:23:14;31.00;1.00
2158;DHT22;41972;48.774;9.282;2022-07-05T10:25:43;31.70;1.00
2158;DHT22;41972;48.774;9.282;2022-07-05T10:28:09;32.50;1.00
2158;DHT22;41972;48.774;9.282;2022-07-05T10:30:36;33.20;1.00
2158;DHT22;41972;48.774;9.282;2022-07-05T10:33:03;32.20;1.00
2158;DHT22;41972;48.774;9.282;2022-07-05T10:35:29;33.60;1.00
2158;DHT22;41972;48.774;9.282;2022-07-05T10:37:55;34.60;1.00
2158;DHT22;41972;48.774;9.282;2022-07-05T10:40:22;35.20;1.00
2158;DHT22;41972;48.774;9.282;2022-07-05T10:42:52;34.10;99.90
2158;DHT22;41972;48.774;9.282;2022-07-05T10:45:36;31.90;99.90
2158;DHT22;41972;48.774;9.282;2022-07-05T10:50:43;29.80;99.90
2158;DHT22;41972;48.774;9.282;2022-07-05T10:53:09;28.40;99.90
2158;DHT22;41972;48.774;9.282;2022-07-05T10:55:48;30.50;99.90
2158;DHT22;41972;48.774;9.282;2022-07-05T11:00:42;31.50;99.90
2158;DHT22;41972;48.774;9.282;2022-07-05T11:03:37;31.30;99.90
2158;DHT22;41972;48.774;9.282;2022-07-05T11:06:03;30.80;99.90
2158;DHT22;41972;48.774;9.282;2022-07-05T11:08:30;31.90;99.90
2158;DHT22;41972;48.774;9.282;2022-07-05T11:11:11;32.00;99.90
2158;DHT22;41972;48.774;9.282;2022-07-05T11:13:41;29.30;99.90
2158;DHT22;41972;48.774;9.282;2022-07-05T11:16:26;29.00;99.90
2158;DHT22;41972;48.774;9.282;2022-07-05T11:21:29;27.40;99.90
2158;DHT22;41972;48.774;9.282;2022-07-05T11:24:18;26.50;99.90
2158;DHT22;41972;48.774;9.282;2022-07-05T11:26:44;26.80;99.90
2158;DHT22;41972;48.774;9.282;2022-07-05T11:29:46;26.70;99.90
2158;DHT22;41972;48.774;9.282;2022-07-05T11:34:45;26.00;95.80
2158;DHT22;41972;48.774;9.282;2022-07-05T11:37:18;26.10;91.10
2158;DHT22;41972;48.774;9.282;2022-07-05T11:42:33;26.00;81.30
2158;DHT22;41972;48.774;9.282;2022-07-05T11:45:00;26.00;44.50
2158;DHT22;41972;48.774;9.282;2022-07-05T11:47:26;26.00;84.30
2158;DHT22;41972;48.774;9.282;2022-07-05T11:49:56;26.10;91.30
2158;DHT22;41972;48.774;9.282;2022-07-05T11:52:26;25.90;75.80
2158;DHT22;41972;48.774;9.282;2022-07-05T11:54:52;26.00;49.10
2158;DHT22;41972;48.774;9.282;2022-07-05T11:57:19;25.90;78.50
2158;DHT22;41972;48.774;9.282;2022-07-05T11:59:47;26.10;80.80
2158;DHT22;41972;48.774;9.282;2022-07-05T12:02:13;26.20;73.30
2158;DHT22;41972;48.774;9.282;2022-07-05T12:04:38;25.20;79.30
2158;DHT22;41972;48.774;9.282;2022-07-05T12:07:04;25.90;42.70
2158;DHT22;41972;48.774;9.282;2022-07-05T12:09:33;26.50;89.70
2158;DHT22;41972;48.774;9.282;2022-07-05T12:12:19;26.40;65.60
2158;DHT22;41972;48.774;9.282;2022-07-05T12:15:04;26.80;85.10
2158;DHT22;41972;48.774;9.282;2022-07-05T12:17:29;26.70;83.00
2158;DHT22;41972;48.774;9.282;2022-07-05T12:19:55;27.20;99.90
2158;DHT22;41972;48.774;9.282;2022-07-05T12:22:31;26.70;81.50
2158;DHT22;41972;48.774;9.282;2022-07-05T12:24:57;26.00;39.10
2158;DHT22;41972;48.774;9.282;2022-07-05T12:27:27;26.50;66.60
2158;DHT22;41972;48.774;9.282;2022-07-05T12:29:54;26.30;51.00
2158;DHT22;41972;48.774;9.282;2022-07-05T12:32:20;25.90;56.40
2158;DHT22;41972;48.774;9.282;2022-07-05T12:34:45;25.90;48.70
2158;DHT22;41972;48.774;9.282;2022-07-05T12:37:20;26.10;65.20
2158;DHT22;41972;48.774;9.282;2022-07-05T12:39:47;26.20;73.20
2158;DHT22;41972;48.774;9.282;2022-07-05T12:42:30;26.30;66.90
2158;DHT22;41972;48.774;9.282;2022-07-05T12:45:09;25.90;64.90
2158;DHT22;41972;48.774;9.282;2022-07-05T12:47:48;26.20;95.40
2158;DHT22;41972;48.774;9.282;2022-07-05T12:50:15;26.50;87.80
2158;DHT22;41972;48.774;9.282;2022-07-05T12:53:17;26.10;99.90
2158;DHT22;41972;48.774;9.282;2022-07-05T12:56:23;25.80;99.90
2158;DHT22;41972;48.774;9.282;2022-07-05T12:59:10;26.20;91.60
2158;DHT22;41972;48.774;9.282;2022-07-05T13:01:40;26.20;92.60
2158;DHT22;41972;48.774;9.282;2022-07-05T13:04:13;26.00;93.50
2158;DHT22;41972;48.774;9.282;2022-07-05T13:06:58;25.80;25.00
2158;DHT22;41972;48.774;9.282;2022-07-05T13:09:34;25.80;30.40
2158;DHT22;41972;48.774;9.282;2022-07-05T13:12:19;25.90;27.40
2158;DHT22;41972;48.774;9.282;2022-07-05T13:14:51;26.00;31.90
2158;DHT22;41972;48.774;9.282;2022-07-05T13:17:19;26.20;20.90
2158;DHT22;41972;48.774;9.282;2022-07-05T13:19:49;26.30;22.00
2158;DHT22;41972;48.774;9.282;2022-07-05T13:22:15;26.50;41.70
2158;DHT22;41972;48.774;9.282;2022-07-05T13:24:41;26.30;33.20
2158;DHT22;41972;48.774;9.282;2022-07-05T13:27:10;26.20;29.90
2158;DHT22;41972;48.774;9.282;2022-07-05T13:29:37;25.70;1.00
2158;DHT22;41972;48.774;9.282;2022-07-05T13:32:03;25.60;2.50
2158;DHT22;41972;48.774;9.282;2022-07-05T13:34:29;25.50;2.60
2158;DHT22;41972;48.774;9.282;2022-07-05T13:36:56;25.40;3.10
2158;DHT22;41972;48.774;9.282;2022-07-05T13:39:23;25.70;12.60
2158;DHT22;41972;48.774;9.282;2022-07-05T13:41:51;25.80;1.00
2158;DHT22;41972;48.774;9.282;2022-07-05T13:44:18;26.00;26.60
2158;DHT22;41972;48.774;9.282;2022-07-05T13:46:43;26.20;10.20
2158;DHT22;41972;48.774;9.282;2022-07-05T13:49:09;26.10;16.80
2158;DHT22;41972;48.774;9.282;2022-07-05T13:51:35;25.90;55.90
2158;DHT22;41972;48.774;9.282;2022-07-05T13:54:00;25.70;1.00
2158;DHT22;41972;48.774;9.282;2022-07-05T13:56:26;25.80;27.10
2158;DHT22;41972;48.774;9.282;2022-07-05T13:58:53;25.60;19.50
2158;DHT22;41972;48.774;9.282;2022-07-05T14:01:18;25.50;7.50
2158;DHT22;41972;48.774;9.282;2022-07-05T14:03:47;25.90;1.00
2158;DHT22;41972;48.774;9.282;2022-07-05T14:06:13;25.70;1.00
2158;DHT22;41972;48.774;9.282;2022-07-05T14:08:40;26.00;1.00
2158;DHT22;41972;48.774;9.282;2022-07-05T14:11:08;26.10;1.00
2158;DHT22;41972;48.774;9.282;2022-07-05T14:13:35;25.80;8.50
2158;DHT22;41972;48.774;9.282;2022-07-05T14:16:00;25.90;1.00
2158;DHT22;41972;48.774;9.282;2022-07-05T14:18:26;26.00;26.50
2158;DHT22;41972;48.774;9.282;2022-07-05T14:20:52;26.10;23.90
2158;DHT22;41972;48.774;9.282;2022-07-05T14:23:17;26.20;29.20
2158;DHT22;41972;48.774;9.282;2022-07-05T14:25:43;26.10;23.10
2158;DHT22;41972;48.774;9.282;2022-07-05T14:28:09;26.40;17.80
2158;DHT22;41972;48.774;9.282;2022-07-05T14:30:35;25.80;15.50
2158;DHT22;41972;48.774;9.282;2022-07-05T14:33:01;25.60;17.20
2158;DHT22;41972;48.774;9.282;2022-07-05T14:35:27;26.00;20.60
2158;DHT22;41972;48.774;9.282;2022-07-05T14:37:53;26.10;26.30
2158;DHT22;41972;48.774;9.282;2022-07-05T14:40:18;26.30;28.20
2158;DHT22;41972;48.774;9.282;2022-07-05T14:42:44;26.40;1.00
2158;DHT22;41972;48.774;9.282;2022-07-05T14:45:10;26.40;37.80
2158;DHT22;41972;48.774;9.282;2022-07-05T14:47:36;26.00;30.10
2158;DHT22;41972;48.774;9.282;2022-07-05T14:50:02;26.20;26.90
2158;DHT22;41972;48.774;9.282;2022-07-05T14:52:29;26.30;18.80
2158;DHT22;41972;48.774;9.282;2022-07-05T14:54:56;25.70;1.00
2158;DHT22;41972;48.774;9.282;2022-07-05T14:57:21;25.70;34.10
2158;DHT22;41972;48.774;9.282;2022-07-05T14:59:47;25.70;19.40
2158;DHT22;41972;48.774;9.282;2022-07-05T15:02:12;25.70;16.00
2158;DHT22;41972;48.774;9.282;2022-07-05T15:04:40;25.90;31.50
2158;DHT22;41972;48.774;9.282;2022-07-05T15:07:06;26.00;27.70
2158;DHT22;41972;48.774;9.282;2022-07-05T15:09:31;25.90;42.90
2158;DHT22;41972;48.774;9.282;2022-07-05T15:11:57;26.10;1.00
2158;DHT22;41972;48.774;9.282;2022-07-05T15:14:22;26.00;1.00
2158;DHT22;41972;48.774;9.282;2022-07-05T15:16:48;26.00;1.00
2158;DHT22;41972;48.774;9.282;2022-07-05T15:19:13;25.40;1.00
2158;DHT22;41972;48.774;9.282;2022-07-05T15:21:39;25.50;1.00
2158;DHT22;41972;48.774;9.282;2022-07-05T15:24:06;25.70;24.10
2158;DHT22;41972;48.774;9.282;2022-07-05T15:26:32;25.60;23.50
2158;DHT22;41972;48.774;9.282;2022-07-05T15:29:03;26.00;15.50
2158;DHT22;41972;48.774;9.282;2022-07-05T15:31:34;26.10;29.20
2158;DHT22;41972;48.774;9.282;2022-07-05T15:34:04;25.70;14.70
2158;DHT22;41972;48.774;9.282;2022-07-05T15:36:30;25.20;5.70
2158;DHT22;41972;48.774;9.282;2022-07-05T15:38:58;25.30;2.60
2158;DHT22;41972;48.774;9.282;2022-07-05T15:41:24;25.30;19.30
2158;DHT22;41972;48.774;9.282;2022-07-05T15:43:49;25.50;16.00
2158;DHT22;41972;48.774;9.282;2022-07-05T15:46:15;25.60;23.80
2158;DHT22;41972;48.774;9.282;2022-07-05T15:48:41;25.60;32.20
2158;DHT22;41972;48.774;9.282;2022-07-05T15:51:07;25.40;49.10
2158;DHT22;41972;48.774;9.282;2022-07-05T15:53:33;25.60;70.60
2158;DHT22;41972;48.774;9.282;2022-07-05T15:55:59;25.40;52.80
2158;DHT22;41972;48.774;9.282;2022-07-05T15:58:31;25.60;21.60
2158;DHT22;41972;48.774;9.282;2022-07-05T16:00:58;25.80;26.00
2158;DHT22;41972;48.774;9.282;2022-07-05T16:03:27;25.70;30.60
2158;DHT22;41972;48.774;9.282;2022-07-05T16:05:54;25.80;15.00
2158;DHT22;41972;48.774;9.282;2022-07-05T16:08:22;25.80;30.30
2158;DHT22;41972;48.774;9.282;2022-07-05T16:10:47;25.60;21.00
2158;DHT22;41972;48.774;9.282;2022-07-05T16:13:13;25.70;34.10